createdAt,value
2019-02-18T00:02:04.138Z,3.46
2019-02-18T00:04:34.618Z,3.44
2019-02-18T00:07:03.455Z,3.22
2019-02-18T00:09:32.356Z,3.26
2019-02-18T00:12:01.293Z,2.95
2019-02-18T00:14:30.291Z,3.13
2019-02-18T00:16:59.532Z,3.27
2019-02-18T00:19:29.494Z,2.73
2019-02-18T00:21:58.464Z,2.95
2019-02-18T00:24:27.903Z,2.78
2019-02-18T00:26:57.277Z,3.02
2019-02-18T00:29:26.816Z,3.11
2019-02-18T00:31:57.664Z,2.69
2019-02-18T00:34:29.807Z,2.97
2019-02-18T00:36:58.741Z,3.13
2019-02-18T00:39:28.035Z,3.01
2019-02-18T00:41:56.971Z,3.00
2019-02-18T00:44:25.861Z,3.16
2019-02-18T00:46:55.432Z,3.12
2019-02-18T00:49:26.144Z,3.18
2019-02-18T00:51:54.993Z,3.15
2019-02-18T00:54:25.438Z,2.86
2019-02-18T00:56:54.356Z,2.98
2019-02-18T00:59:23.415Z,3.04
2019-02-18T01:01:52.296Z,3.02
2019-02-18T01:04:24.655Z,3.17
2019-02-18T01:17:41.119Z,2.81
2019-02-18T01:20:10.720Z,2.89
2019-02-18T01:22:39.557Z,2.99
2019-02-18T01:25:10.150Z,2.80
2019-02-18T01:27:39.142Z,2.72
2019-02-18T01:30:10.910Z,2.89
2019-02-18T01:32:39.809Z,2.87
2019-02-18T01:35:09.363Z,2.42
2019-02-18T01:37:45.248Z,2.72
2019-02-18T01:40:11.690Z,2.04
2019-02-18T01:42:40.622Z,2.05
2019-02-18T01:45:11.141Z,2.15
2019-02-18T01:47:39.940Z,1.96
2019-02-18T01:50:13.613Z,1.67
2019-02-18T01:52:42.659Z,1.88
2019-02-18T01:55:12.717Z,2.16
2019-02-18T01:57:41.631Z,2.23
2019-02-18T02:00:13.193Z,2.42
2019-02-18T02:02:42.240Z,2.24
2019-02-18T02:05:12.968Z,2.24
2019-02-18T02:07:42.241Z,2.43
2019-02-18T02:10:12.717Z,2.35
2019-02-18T02:12:41.979Z,2.31
2019-02-18T02:15:20.229Z,1.91
2019-02-18T02:17:49.241Z,1.94
2019-02-18T02:20:18.054Z,2.21
2019-02-18T02:22:46.994Z,1.85
2019-02-18T02:25:16.151Z,2.15
2019-02-18T02:27:45.079Z,2.12
2019-02-18T02:30:13.998Z,2.16
2019-02-18T02:32:42.998Z,1.96
2019-02-18T02:35:12.293Z,2.16
2019-02-18T02:37:41.665Z,1.44
2019-02-18T02:40:10.660Z,1.32
2019-02-18T02:42:39.495Z,1.69
2019-02-18T02:45:08.494Z,1.79
2019-02-18T02:47:38.434Z,1.65
2019-02-18T02:50:08.133Z,1.73
2019-02-18T02:52:37.074Z,1.95
2019-02-18T02:55:06.049Z,1.64
2019-02-18T02:57:34.962Z,1.16
2019-02-18T03:00:05.465Z,1.52
2019-02-18T03:02:34.429Z,1.38
2019-02-18T03:05:03.730Z,0.76
2019-02-18T03:07:32.579Z,1.15
2019-02-18T03:10:01.387Z,1.22
2019-02-18T03:12:30.282Z,1.23
2019-02-18T03:14:59.303Z,1.18
2019-02-18T03:17:28.120Z,0.84
2019-02-18T03:19:57.061Z,1.25
2019-02-18T03:22:26.656Z,1.28
2019-02-18T03:25:23.809Z,1.12
2019-02-18T03:28:19.363Z,1.06
2019-02-18T03:31:09.313Z,1.05
2019-02-18T03:33:44.735Z,1.15
2019-02-18T03:36:13.545Z,1.27
2019-02-18T03:38:42.351Z,1.04
2019-02-18T03:41:11.953Z,0.82
2019-02-18T03:43:41.154Z,0.93
2019-02-18T03:46:10.222Z,1.27
2019-02-18T03:48:39.100Z,1.25
2019-02-18T03:51:08.073Z,0.85
2019-02-18T03:53:36.923Z,1.13
2019-02-18T03:56:05.851Z,0.95
2019-02-18T03:58:34.754Z,1.17
2019-02-18T04:01:03.733Z,1.21
2019-02-18T04:03:32.697Z,0.66
2019-02-18T04:06:01.500Z,0.76
2019-02-18T04:08:42.050Z,0.99
2019-02-18T04:11:01.489Z,0.94
2019-02-18T04:13:30.707Z,0.74
2019-02-18T04:15:59.853Z,1.04
2019-02-18T04:18:28.658Z,0.96
2019-02-18T04:20:57.554Z,0.97
2019-02-18T04:23:26.593Z,0.93
2019-02-18T04:25:56.036Z,0.31
2019-02-18T04:28:24.871Z,0.55
2019-02-18T04:30:54.148Z,0.48
2019-02-18T04:33:22.954Z,0.68
2019-02-18T04:35:51.782Z,0.90
2019-02-18T04:38:20.646Z,0.77
2019-02-18T04:40:49.467Z,0.88
2019-02-18T04:43:18.347Z,0.99
2019-02-18T04:45:47.411Z,1.02
2019-02-18T04:48:16.220Z,0.51
2019-02-18T04:50:45.058Z,0.73
2019-02-18T04:53:13.915Z,0.73
2019-02-18T04:55:43.145Z,0.56
2019-02-18T04:58:12.083Z,0.76
2019-02-18T05:00:41.232Z,0.73
2019-02-18T05:03:10.060Z,0.64
2019-02-18T05:05:38.977Z,0.42
2019-02-18T05:08:07.924Z,0.45
2019-02-18T05:10:36.822Z,0.48
2019-02-18T05:13:05.739Z,0.12
2019-02-18T05:15:34.775Z,0.37
2019-02-18T05:18:03.621Z,0.63
2019-02-18T05:20:32.403Z,0.49
2019-02-18T05:23:01.521Z,0.55
2019-02-18T05:25:30.496Z,0.60
2019-02-18T05:27:59.585Z,0.58
2019-02-18T05:30:29.551Z,0.37
2019-02-18T05:32:58.436Z,0.45
2019-02-18T05:35:27.367Z,0.42
2019-02-18T05:37:56.185Z,0.33
2019-02-18T05:40:25.050Z,0.52
2019-02-18T05:42:53.965Z,0.02
2019-02-18T05:45:24.216Z,0.42
2019-02-18T05:47:53.748Z,0.31
2019-02-18T05:50:22.843Z,0.29
2019-02-18T05:52:51.827Z,0.49
2019-02-18T05:55:21.145Z,0.20
2019-02-18T05:57:56.389Z,0.19
2019-02-18T06:00:25.331Z,0.39
2019-02-18T06:02:54.838Z,0.01
2019-02-18T06:05:23.893Z,0.14
2019-02-18T06:07:54.791Z,0.45
2019-02-18T06:10:23.749Z,0.47
2019-02-18T06:12:52.567Z,0.47
2019-02-18T06:15:21.447Z,0.45
2019-02-18T06:17:50.908Z,0.52
2019-02-18T06:20:19.917Z,0.40
2019-02-18T06:22:48.840Z,0.28
2019-02-18T06:25:17.870Z,0.25
2019-02-18T06:27:46.830Z,0.40
2019-02-18T06:30:15.640Z,0.31
2019-02-18T06:32:44.555Z,0.19
2019-02-18T06:35:14.640Z,0.25
2019-02-18T06:37:43.555Z,0.05
2019-02-18T06:40:12.642Z,0.26
2019-02-18T06:43:18.415Z,0.18
2019-02-18T06:45:53.467Z,0.12
2019-02-18T06:48:28.582Z,0.30
2019-02-18T06:51:00.935Z,0.46
2019-02-18T06:53:33.787Z,0.38
2019-02-18T06:56:03.025Z,0.33
2019-02-18T06:59:00.152Z,0.04
2019-02-18T07:01:51.188Z,0.16
2019-02-18T07:04:35.634Z,0.10
2019-02-18T07:07:12.897Z,0.33
2019-02-18T07:09:51.636Z,0.15
2019-02-18T07:12:32.311Z,0.46
2019-02-18T07:15:01.407Z,0.38
2019-02-18T07:17:30.552Z,0.34
2019-02-18T07:19:59.386Z,0.37
2019-02-18T07:22:29.683Z,0.26
2019-02-18T07:24:58.505Z,0.27
2019-02-18T07:27:31.928Z,0.57
2019-02-18T07:30:02.112Z,0.69
2019-02-18T07:32:30.917Z,0.78
2019-02-18T07:34:59.870Z,0.63
2019-02-18T07:37:28.683Z,0.79
2019-02-18T07:40:01.471Z,0.86
2019-02-18T07:42:34.697Z,0.93
2019-02-18T07:45:02.106Z,1.09
2019-02-18T07:47:31.204Z,1.28
2019-02-18T07:50:00.599Z,1.47
2019-02-18T07:52:29.837Z,1.76
2019-02-18T07:54:58.816Z,1.69
2019-02-18T07:57:28.089Z,1.89
2019-02-18T07:59:57.074Z,2.22
2019-02-18T08:02:26.703Z,2.38
2019-02-18T08:04:55.621Z,2.43
2019-02-18T08:07:24.672Z,2.56
2019-02-18T08:09:53.613Z,2.81
2019-02-18T08:12:23.052Z,3.23
2019-02-18T08:14:52.043Z,3.23
2019-02-18T08:17:21.090Z,3.46
2019-02-18T08:19:51.214Z,3.72
2019-02-18T08:22:20.082Z,3.72
2019-02-18T08:24:49.318Z,3.86
2019-02-18T08:27:18.149Z,3.93
2019-02-18T08:29:47.229Z,4.30
2019-02-18T08:32:16.059Z,4.57
2019-02-18T08:34:45.082Z,4.65
2019-02-18T08:37:14.475Z,4.84
2019-02-18T08:39:44.393Z,5.08
2019-02-18T08:42:13.935Z,5.09
2019-02-18T08:44:43.175Z,5.30
2019-02-18T08:47:12.677Z,5.46
2019-02-18T08:49:41.526Z,5.56
2019-02-18T08:52:11.154Z,5.65
2019-02-18T08:54:40.307Z,5.66
2019-02-18T08:57:09.679Z,5.87
2019-02-18T08:59:38.861Z,6.12
2019-02-18T09:02:09.238Z,6.46
2019-02-18T09:04:38.788Z,6.54
2019-02-18T09:07:07.674Z,6.69
2019-02-18T09:09:36.929Z,6.87
2019-02-18T09:12:06.125Z,7.00
2019-02-18T09:14:34.898Z,7.10
2019-02-18T09:17:05.611Z,7.26
2019-02-18T09:19:35.517Z,7.31
2019-02-18T09:22:23.738Z,7.54
2019-02-18T09:24:59.250Z,7.75
2019-02-18T09:27:28.086Z,7.73
2019-02-18T09:29:56.986Z,7.98
2019-02-18T09:32:25.899Z,8.08
2019-02-18T09:35:01.758Z,8.16
2019-02-18T09:37:26.003Z,8.25
2019-02-18T09:39:55.153Z,8.38
2019-02-18T09:42:26.502Z,8.46
2019-02-18T09:44:54.965Z,8.69
2019-02-18T09:47:24.147Z,8.81
2019-02-18T09:49:53.270Z,8.98
2019-02-18T09:52:22.358Z,9.05
2019-02-18T09:54:51.400Z,8.99
2019-02-18T09:57:20.458Z,9.28
2019-02-18T09:59:49.463Z,9.42
2019-02-18T10:02:18.482Z,9.49
2019-02-18T10:04:47.269Z,9.55
2019-02-18T10:07:16.121Z,9.72
2019-02-18T10:09:44.917Z,9.71
2019-02-18T10:12:18.241Z,9.78
2019-02-18T10:14:45.818Z,9.85
2019-02-18T10:17:14.663Z,10.14
2019-02-18T10:19:43.457Z,10.06
2019-02-18T10:22:12.273Z,10.09
2019-02-18T10:24:50.712Z,10.13
2019-02-18T10:27:12.134Z,10.35
2019-02-18T10:29:41.043Z,10.58
2019-02-18T10:32:10.405Z,10.62
2019-02-18T10:34:39.527Z,10.76
2019-02-18T10:37:09.954Z,10.44
2019-02-18T10:39:38.773Z,10.62
2019-02-18T10:42:08.049Z,10.67
2019-02-18T10:44:36.986Z,10.99
2019-02-18T10:47:08.074Z,11.16
2019-02-18T10:49:37.077Z,11.04
2019-02-18T10:52:06.881Z,11.16
2019-02-18T10:54:36.454Z,11.33
2019-02-18T10:57:05.767Z,11.25
2019-02-18T10:59:35.000Z,11.40
2019-02-18T11:02:04.276Z,11.68
2019-02-18T11:04:33.539Z,11.77
2019-02-18T11:07:02.565Z,11.88
2019-02-18T11:09:31.358Z,11.81
2019-02-18T11:12:00.189Z,11.99
2019-02-18T11:14:29.131Z,11.85
2019-02-18T11:16:58.342Z,12.22
2019-02-18T11:19:27.149Z,12.13
2019-02-18T11:21:56.435Z,12.37
2019-02-18T11:24:25.565Z,12.23
2019-02-18T11:26:54.990Z,12.52
2019-02-18T11:29:24.201Z,12.37
2019-02-18T11:31:53.577Z,12.31
2019-02-18T11:34:22.510Z,12.54
2019-02-18T11:36:51.562Z,12.51
2019-02-18T11:39:20.661Z,12.60
2019-02-18T11:41:49.518Z,12.66
2019-02-18T11:44:18.886Z,12.58
2019-02-18T11:46:47.740Z,12.64
2019-02-18T11:49:16.613Z,12.63
2019-02-18T11:51:45.439Z,12.77
2019-02-18T11:54:14.252Z,12.86
2019-02-18T11:56:43.570Z,12.76
2019-02-18T11:59:12.603Z,12.91
2019-02-18T12:01:41.850Z,12.87
2019-02-18T12:04:11.131Z,13.16
2019-02-18T12:06:41.657Z,13.05
2019-02-18T12:09:17.745Z,13.19
2019-02-18T12:11:45.715Z,13.20
2019-02-18T12:14:14.670Z,13.45
2019-02-18T12:16:43.557Z,13.50
2019-02-18T12:19:12.480Z,13.64
2019-02-18T12:21:41.296Z,13.61
2019-02-18T12:24:10.102Z,13.69
2019-02-18T12:26:39.105Z,13.80
2019-02-18T12:29:07.934Z,14.00
2019-02-18T12:31:36.769Z,13.58
2019-02-18T12:34:05.586Z,13.87
2019-02-18T12:36:37.867Z,14.10
2019-02-18T12:39:13.401Z,13.97
2019-02-18T12:41:48.681Z,14.09
2019-02-18T12:44:14.257Z,14.01
2019-02-18T12:46:43.119Z,13.92
2019-02-18T12:49:12.109Z,14.09
2019-02-18T12:51:42.680Z,14.16
2019-02-18T12:54:11.723Z,14.10
2019-02-18T12:56:41.253Z,14.22
2019-02-18T12:59:10.328Z,14.25
2019-02-18T13:01:39.853Z,14.25
2019-02-18T13:04:08.886Z,14.35
2019-02-18T13:06:37.914Z,14.33
2019-02-18T13:09:07.522Z,14.48
2019-02-18T13:11:36.784Z,14.54
2019-02-18T13:14:05.804Z,14.70
2019-02-18T13:16:35.478Z,14.70
2019-02-18T13:19:04.501Z,14.76
2019-02-18T13:21:33.607Z,14.76
2019-02-18T13:24:02.613Z,15.02
2019-02-18T13:26:31.516Z,14.85
2019-02-18T13:29:00.338Z,14.81
2019-02-18T13:31:29.232Z,14.94
2019-02-18T13:33:58.177Z,14.84
2019-02-18T13:36:28.755Z,14.89
2019-02-18T13:38:59.329Z,15.06
2019-02-18T13:41:28.515Z,15.02
2019-02-18T13:43:57.475Z,15.08
2019-02-18T13:46:27.579Z,15.23
2019-02-18T13:48:56.837Z,15.36
2019-02-18T13:51:25.734Z,15.22
2019-02-18T13:53:55.171Z,15.32
2019-02-18T13:56:24.470Z,15.51
2019-02-18T13:58:53.769Z,15.46
2019-02-18T14:01:23.063Z,16.20
2019-02-18T14:03:52.252Z,16.45
2019-02-18T14:06:21.126Z,15.90
2019-02-18T14:08:50.012Z,15.59
2019-02-18T14:11:18.904Z,15.54
2019-02-18T14:13:48.644Z,15.72
2019-02-18T14:16:17.877Z,15.70
2019-02-18T14:18:47.074Z,15.86
2019-02-18T14:21:16.379Z,16.03
2019-02-18T14:23:45.303Z,16.10
2019-02-18T14:26:14.354Z,16.21
2019-02-18T14:28:43.667Z,16.03
2019-02-18T14:31:12.683Z,16.25
2019-02-18T14:33:41.671Z,15.96
2019-02-18T14:36:11.091Z,16.16
2019-02-18T14:38:43.572Z,16.21
2019-02-18T14:41:15.306Z,15.68
2019-02-18T14:43:44.301Z,15.61
2019-02-18T14:46:19.663Z,15.38
2019-02-18T14:48:50.209Z,15.34
2019-02-18T14:51:19.725Z,15.22
2019-02-18T14:53:49.186Z,15.08
2019-02-18T14:56:18.347Z,14.96
2019-02-18T14:58:47.155Z,14.97
2019-02-18T15:01:16.646Z,14.94
2019-02-18T15:03:45.529Z,14.85
2019-02-18T15:06:15.557Z,14.81
2019-02-18T15:08:44.347Z,14.71
2019-02-18T15:11:13.468Z,14.72
2019-02-18T15:13:42.366Z,14.63
2019-02-18T15:16:11.689Z,14.67
2019-02-18T15:18:41.446Z,14.65
2019-02-18T15:21:11.019Z,14.56
2019-02-18T15:23:39.915Z,14.54
2019-02-18T15:26:09.216Z,14.49
2019-02-18T15:28:38.083Z,14.39
2019-02-18T15:31:08.958Z,14.33
2019-02-18T15:33:37.784Z,14.37
2019-02-18T15:36:06.774Z,14.32
2019-02-18T15:38:36.019Z,14.30
2019-02-18T15:41:05.196Z,14.26
2019-02-18T15:43:35.326Z,14.23
2019-02-18T15:46:04.857Z,14.20
2019-02-18T15:48:33.892Z,14.26
2019-02-18T15:51:02.777Z,14.08
2019-02-18T15:53:31.762Z,14.07
2019-02-18T15:56:00.869Z,14.01
2019-02-18T15:58:29.756Z,13.96
2019-02-18T16:00:59.392Z,13.83
2019-02-18T16:03:28.374Z,13.52
2019-02-18T16:05:58.334Z,13.67
2019-02-18T16:08:27.279Z,13.53
2019-02-18T16:10:56.106Z,13.52
2019-02-18T16:13:27.019Z,13.49
2019-02-18T16:15:56.130Z,13.43
2019-02-18T16:18:24.929Z,13.33
2019-02-18T16:20:53.730Z,13.28
2019-02-18T16:23:23.073Z,13.21
2019-02-18T16:25:52.670Z,13.12
2019-02-18T16:28:21.508Z,12.98
2019-02-18T16:30:50.482Z,12.78
2019-02-18T16:33:20.211Z,12.76
2019-02-18T16:35:50.459Z,12.70
2019-02-18T16:38:19.596Z,12.67
2019-02-18T16:40:49.524Z,12.54
2019-02-18T16:43:18.573Z,12.42
2019-02-18T16:45:49.468Z,12.06
2019-02-18T16:48:18.933Z,12.04
2019-02-18T16:50:48.146Z,11.61
2019-02-18T16:53:17.740Z,11.49
2019-02-18T16:55:47.154Z,11.31
2019-02-18T16:58:16.887Z,10.85
2019-02-18T17:00:45.888Z,11.08
2019-02-18T17:03:15.067Z,10.96
2019-02-18T17:05:44.006Z,11.02
2019-02-18T17:08:13.346Z,10.94
2019-02-18T17:10:44.671Z,10.62
2019-02-18T17:13:13.506Z,10.69
2019-02-18T17:15:42.502Z,10.63
2019-02-18T17:21:40.009Z,10.21
2019-02-18T17:24:08.828Z,9.86
2019-02-18T17:26:39.270Z,9.48
2019-02-18T17:29:08.685Z,9.73
2019-02-18T17:31:37.466Z,9.76
2019-02-18T17:34:07.139Z,9.88
2019-02-18T17:36:37.646Z,9.39
2019-02-18T17:39:07.808Z,9.45
2019-02-18T17:41:37.774Z,9.34
2019-02-18T17:44:06.676Z,9.26
2019-02-18T17:46:36.696Z,9.34
2019-02-18T17:49:05.650Z,9.12
2019-02-18T17:51:34.645Z,9.12
2019-02-18T17:54:04.735Z,9.14
2019-02-18T17:56:34.360Z,8.99
2019-02-18T17:59:03.414Z,8.94
2019-02-18T18:01:32.312Z,8.95
2019-02-18T18:04:01.375Z,8.65
2019-02-18T18:06:30.943Z,8.64
2019-02-18T18:09:00.827Z,8.61
2019-02-18T18:11:30.397Z,8.48
2019-02-18T18:13:59.338Z,8.50
2019-02-18T18:16:28.357Z,8.47
2019-02-18T18:18:57.316Z,8.31
2019-02-18T18:21:26.272Z,8.09
2019-02-18T18:23:55.507Z,8.10
2019-02-18T18:26:24.638Z,7.96
2019-02-18T18:28:54.309Z,7.83
2019-02-18T18:31:23.528Z,7.76
2019-02-18T18:33:53.080Z,7.44
2019-02-18T18:36:22.765Z,7.41
2019-02-18T18:38:53.278Z,7.63
2019-02-18T18:41:22.800Z,7.46
2019-02-18T18:43:51.902Z,7.49
2019-02-18T18:46:21.330Z,7.42
2019-02-18T18:48:51.168Z,7.58
2019-02-18T18:51:20.150Z,7.46
2019-02-18T18:53:50.018Z,7.48
2019-02-18T18:56:18.804Z,7.15
2019-02-18T18:58:48.254Z,7.21
2019-02-18T19:01:17.446Z,7.03
2019-02-18T19:03:52.506Z,7.00
2019-02-18T19:06:22.425Z,7.07
2019-02-18T19:08:51.202Z,7.07
2019-02-18T19:11:20.123Z,7.02
2019-02-18T19:13:49.398Z,6.68
2019-02-18T19:16:18.579Z,6.82
2019-02-18T19:18:47.547Z,6.64
2019-02-18T19:21:17.086Z,6.52
2019-02-18T19:23:46.317Z,6.20
2019-02-18T19:26:15.957Z,6.56
2019-02-18T19:28:46.588Z,6.51
2019-02-18T19:31:15.571Z,6.55
2019-02-18T19:33:45.372Z,6.30
2019-02-18T19:37:13.937Z,6.22
2019-02-18T19:40:38.952Z,6.13
2019-02-18T19:43:22.622Z,6.30
2019-02-18T19:45:51.659Z,6.00
2019-02-18T19:48:21.129Z,5.70
2019-02-18T19:50:51.484Z,6.09
2019-02-18T19:53:21.557Z,6.18
2019-02-18T19:55:50.484Z,5.76
2019-02-18T19:58:20.846Z,5.78
2019-02-18T20:00:50.018Z,5.81
2019-02-18T20:03:18.993Z,5.86
2019-02-18T20:05:47.861Z,5.08
2019-02-18T20:08:19.763Z,5.60
2019-02-18T20:10:49.187Z,5.79
2019-02-18T20:13:19.136Z,5.78
2019-02-18T20:15:47.984Z,5.74
2019-02-18T20:18:17.062Z,5.62
2019-02-18T20:20:46.729Z,5.61
2019-02-18T20:23:16.980Z,5.47
2019-02-18T20:25:45.884Z,5.47
2019-02-18T20:28:14.721Z,5.46
2019-02-18T20:30:49.784Z,5.55
2019-02-18T20:33:18.684Z,5.01
2019-02-18T20:35:47.989Z,5.23
2019-02-18T20:38:16.864Z,5.14
2019-02-18T20:40:46.349Z,5.12
2019-02-18T20:43:16.053Z,5.28
2019-02-18T20:45:45.354Z,5.22
2019-02-18T20:48:14.437Z,4.77
2019-02-18T20:50:43.642Z,5.09
2019-02-18T20:53:12.481Z,4.93
2019-02-18T20:55:43.037Z,5.11
2019-02-18T20:58:12.026Z,4.65
2019-02-18T21:00:40.996Z,4.46
2019-02-18T21:03:10.257Z,4.49
2019-02-18T21:05:40.432Z,4.39
2019-02-18T21:08:09.245Z,4.43
2019-02-18T21:10:39.868Z,4.42
2019-02-18T21:13:09.172Z,4.56
2019-02-18T21:15:38.445Z,4.49
2019-02-18T21:18:09.265Z,4.28
2019-02-18T21:20:38.741Z,4.24
2019-02-18T21:23:08.468Z,4.41
2019-02-18T21:25:37.646Z,4.39
2019-02-18T21:28:06.914Z,4.45
2019-02-18T21:30:36.005Z,4.52
2019-02-18T21:33:05.073Z,4.34
2019-02-18T21:35:34.089Z,4.06
2019-02-18T21:38:04.408Z,3.69
2019-02-18T21:40:33.291Z,3.80
2019-02-18T21:43:02.242Z,4.16
2019-02-18T21:45:31.387Z,4.12
2019-02-18T21:48:00.823Z,4.02
2019-02-18T21:50:29.878Z,3.32
2019-02-18T21:52:58.843Z,3.57
2019-02-18T21:55:27.884Z,3.78
2019-02-18T21:57:56.779Z,3.69
2019-02-18T22:00:27.011Z,3.84
2019-02-18T22:02:56.154Z,4.00
2019-02-18T22:05:27.020Z,4.01
2019-02-18T22:07:57.371Z,3.96
2019-02-18T22:10:26.953Z,3.73
2019-02-18T22:12:56.331Z,3.99
2019-02-18T22:15:27.600Z,3.63
2019-02-18T22:17:56.829Z,4.03
2019-02-18T22:20:25.968Z,3.94
2019-02-18T22:22:54.957Z,3.77
2019-02-18T22:25:25.049Z,3.87
2019-02-18T22:27:54.090Z,3.05
2019-02-18T22:30:22.929Z,3.46
2019-02-18T22:32:52.423Z,3.60
2019-02-18T22:35:21.425Z,3.86
2019-02-18T22:37:50.266Z,3.66
2019-02-18T22:40:20.023Z,3.55
2019-02-18T22:42:49.932Z,3.58
2019-02-18T22:45:18.884Z,3.56
2019-02-18T22:47:50.114Z,3.72
2019-02-18T22:50:19.248Z,3.37
2019-02-18T22:52:50.943Z,3.68
2019-02-18T22:55:20.068Z,3.81
2019-02-18T22:57:49.257Z,3.82
2019-02-18T23:01:02.065Z,3.76
2019-02-18T23:03:31.211Z,3.68
2019-02-18T23:06:00.292Z,3.78
2019-02-18T23:08:29.459Z,3.45
2019-02-18T23:10:59.083Z,3.71
2019-02-18T23:13:29.361Z,3.62
2019-02-18T23:15:58.384Z,3.73
2019-02-18T23:18:27.911Z,3.61
2019-02-18T23:20:57.898Z,3.54
2019-02-18T23:23:27.164Z,3.54
2019-02-18T23:25:55.990Z,3.66
2019-02-18T23:28:25.056Z,3.72
2019-02-18T23:30:53.955Z,3.68
2019-02-18T23:33:23.488Z,3.59
2019-02-18T23:35:52.538Z,3.52
2019-02-18T23:38:21.478Z,3.50
2019-02-18T23:40:50.342Z,3.27
2019-02-18T23:43:19.933Z,3.57
2019-02-18T23:45:48.845Z,3.29
2019-02-18T23:48:17.940Z,3.27
2019-02-18T23:50:46.777Z,3.46
2019-02-18T23:53:16.054Z,3.44
2019-02-18T23:55:45.215Z,3.04
2019-02-18T23:58:14.410Z,3.29
